createdAt,value
2023-05-09T00:01:11.965Z,3.50
2023-05-09T00:03:39.234Z,3.30
2023-05-09T00:06:07.351Z,4.65
2023-05-09T00:08:33.983Z,3.75
2023-05-09T00:11:02.229Z,2.80
2023-05-09T00:13:28.912Z,2.33
2023-05-09T00:15:58.422Z,2.50
2023-05-09T00:18:25.122Z,2.40
2023-05-09T00:20:53.054Z,2.20
2023-05-09T00:23:19.823Z,2.83
2023-05-09T00:25:46.470Z,2.20
2023-05-09T00:28:13.067Z,2.70
2023-05-09T00:30:39.710Z,2.63
2023-05-09T00:33:06.437Z,2.97
2023-05-09T00:35:34.889Z,2.63
2023-05-09T00:38:01.491Z,2.50
2023-05-09T00:40:28.252Z,2.28
2023-05-09T00:42:58.274Z,2.15
2023-05-09T00:45:26.409Z,2.08
2023-05-09T00:47:53.098Z,1.77
2023-05-09T00:50:20.066Z,2.22
2023-05-09T00:52:46.683Z,2.00
2023-05-09T00:55:14.000Z,2.28
2023-05-09T00:57:40.873Z,2.60
2023-05-09T01:00:13.098Z,1.92
2023-05-09T01:02:46.695Z,2.05
2023-05-09T01:05:14.554Z,2.40
2023-05-09T01:07:56.991Z,2.00
2023-05-09T01:10:44.292Z,2.00
2023-05-09T01:13:45.644Z,2.10
2023-05-09T01:16:18.327Z,2.10
2023-05-09T01:19:01.175Z,2.30
2023-05-09T01:21:31.628Z,2.30
2023-05-09T01:24:17.901Z,1.98
2023-05-09T01:27:06.483Z,2.63
2023-05-09T01:29:50.140Z,2.10
2023-05-09T01:32:21.696Z,2.13
2023-05-09T01:34:52.801Z,2.15
2023-05-09T01:37:24.002Z,2.08
2023-05-09T01:39:54.298Z,2.22
2023-05-09T01:42:22.271Z,2.60
2023-05-09T01:44:49.718Z,1.95
2023-05-09T01:47:18.231Z,2.08
2023-05-09T01:49:47.635Z,2.45
2023-05-09T01:52:20.769Z,2.15
2023-05-09T01:54:48.925Z,2.15
2023-05-09T01:57:18.505Z,2.10
2023-05-09T01:59:47.484Z,2.47
2023-05-09T02:02:15.092Z,2.13
2023-05-09T02:04:44.767Z,2.53
2023-05-09T02:07:12.726Z,2.45
2023-05-09T02:09:39.500Z,1.90
2023-05-09T02:12:06.875Z,2.42
2023-05-09T02:14:33.605Z,2.17
2023-05-09T02:17:06.421Z,2.50
2023-05-09T02:19:35.346Z,2.72
2023-05-09T02:22:02.872Z,2.40
2023-05-09T02:24:29.604Z,2.45
2023-05-09T02:26:56.544Z,2.17
2023-05-09T02:29:33.195Z,2.15
2023-05-09T02:32:02.260Z,2.33
2023-05-09T02:34:30.438Z,2.67
2023-05-09T02:36:58.613Z,2.10
2023-05-09T02:39:25.741Z,2.53
2023-05-09T02:41:52.367Z,2.58
2023-05-09T02:44:18.993Z,2.67
2023-05-09T02:46:45.669Z,2.55
2023-05-09T02:49:22.778Z,2.63
2023-05-09T02:52:00.748Z,2.33
2023-05-09T02:54:27.552Z,2.83
2023-05-09T02:56:55.458Z,1.90
2023-05-09T02:59:23.458Z,2.50
2023-05-09T03:01:50.317Z,2.60
2023-05-09T03:04:17.963Z,2.55
2023-05-09T03:06:45.074Z,2.33
2023-05-09T03:09:11.658Z,2.42
2023-05-09T03:11:39.565Z,2.50
2023-05-09T03:14:09.718Z,2.65
2023-05-09T03:16:36.835Z,2.80
2023-05-09T03:19:05.086Z,2.08
2023-05-09T03:21:32.140Z,2.40
2023-05-09T03:24:00.224Z,2.35
2023-05-09T03:26:26.856Z,2.10
2023-05-09T03:28:54.661Z,2.47
2023-05-09T03:31:21.372Z,2.10
2023-05-09T03:33:49.305Z,2.78
2023-05-09T03:36:16.445Z,2.25
2023-05-09T03:38:44.645Z,2.17
2023-05-09T03:41:13.093Z,2.63
2023-05-09T03:43:39.749Z,2.25
2023-05-09T03:46:06.430Z,2.53
2023-05-09T03:48:33.150Z,2.65
2023-05-09T03:51:01.057Z,2.63
2023-05-09T03:53:27.707Z,2.90
2023-05-09T03:55:55.690Z,2.47
2023-05-09T03:58:22.340Z,2.20
2023-05-09T04:00:49.051Z,2.55
2023-05-09T04:03:16.151Z,2.47
2023-05-09T04:05:42.846Z,2.20
2023-05-09T04:08:10.926Z,2.33
2023-05-09T04:10:37.559Z,2.60
2023-05-09T04:13:04.218Z,2.50
2023-05-09T04:15:30.864Z,2.70
2023-05-09T04:17:57.571Z,2.40
2023-05-09T04:20:25.562Z,3.05
2023-05-09T04:22:53.299Z,2.55
2023-05-09T04:25:20.793Z,2.53
2023-05-09T04:27:47.440Z,2.83
2023-05-09T04:30:14.573Z,2.50
2023-05-09T04:32:45.746Z,2.30
2023-05-09T04:35:14.154Z,2.65
2023-05-09T04:37:41.880Z,3.58
2023-05-09T04:40:09.390Z,3.58
2023-05-09T04:42:36.207Z,3.90
2023-05-09T04:45:03.238Z,3.08
2023-05-09T04:47:31.359Z,2.60
2023-05-09T04:49:58.019Z,3.17
2023-05-09T04:52:24.675Z,3.60
2023-05-09T04:54:51.312Z,3.25
2023-05-09T04:57:19.078Z,3.22
2023-05-09T04:59:46.159Z,2.72
2023-05-09T05:02:13.857Z,2.90
2023-05-09T05:04:40.728Z,3.25
2023-05-09T05:07:07.461Z,2.67
2023-05-09T05:09:35.464Z,2.60
2023-05-09T05:12:04.138Z,2.80
2023-05-09T05:14:31.585Z,2.85
2023-05-09T05:16:58.242Z,2.40
2023-05-09T05:19:24.842Z,2.45
2023-05-09T05:21:52.772Z,2.40
2023-05-09T05:24:19.424Z,2.95
2023-05-09T05:26:46.057Z,2.83
2023-05-09T05:29:12.672Z,2.67
2023-05-09T05:31:39.348Z,2.20
2023-05-09T05:34:07.418Z,2.53
2023-05-09T05:36:34.009Z,2.65
2023-05-09T05:39:00.644Z,2.50
2023-05-09T05:41:27.591Z,2.50
2023-05-09T05:43:54.598Z,2.95
2023-05-09T05:46:21.608Z,2.42
2023-05-09T05:48:48.338Z,2.47
2023-05-09T05:51:16.199Z,2.20
2023-05-09T05:53:44.649Z,2.63
2023-05-09T05:56:11.317Z,2.28
2023-05-09T05:58:38.309Z,2.40
2023-05-09T06:01:05.122Z,2.35
2023-05-09T06:03:32.180Z,2.35
2023-05-09T06:06:00.679Z,2.42
2023-05-09T06:08:27.269Z,2.55
2023-05-09T06:10:54.486Z,2.67
2023-05-09T06:13:21.173Z,2.53
2023-05-09T06:15:48.009Z,2.88
2023-05-09T06:18:14.793Z,2.35
2023-05-09T06:20:41.409Z,2.15
2023-05-09T06:23:08.069Z,2.30
2023-05-09T06:25:34.713Z,2.67
2023-05-09T06:28:01.414Z,1.80
2023-05-09T06:30:28.102Z,2.60
2023-05-09T06:32:56.837Z,2.40
2023-05-09T06:35:25.175Z,2.17
2023-05-09T06:37:53.454Z,2.50
2023-05-09T06:40:20.205Z,2.47
2023-05-09T06:42:46.901Z,2.30
2023-05-09T06:45:13.777Z,2.25
2023-05-09T06:47:40.712Z,2.28
2023-05-09T06:50:08.236Z,2.28
2023-05-09T06:52:34.877Z,2.08
2023-05-09T06:55:02.759Z,2.30
2023-05-09T06:57:29.566Z,2.55
2023-05-09T06:59:57.702Z,2.30
2023-05-09T07:02:24.387Z,3.10
2023-05-09T07:04:51.214Z,2.50
2023-05-09T07:07:17.873Z,2.28
2023-05-09T07:09:44.521Z,2.20
2023-05-09T07:12:11.371Z,2.13
2023-05-09T07:14:38.250Z,2.60
2023-05-09T07:17:21.097Z,2.20
2023-05-09T07:19:49.146Z,1.95
2023-05-09T07:22:17.457Z,2.13
2023-05-09T07:24:44.622Z,2.00
2023-05-09T07:27:11.274Z,2.08
2023-05-09T07:29:38.140Z,2.33
2023-05-09T07:32:05.070Z,2.50
2023-05-09T07:34:33.676Z,3.30
2023-05-09T07:37:00.416Z,2.17
2023-05-09T07:39:27.018Z,2.53
2023-05-09T07:41:53.640Z,2.47
2023-05-09T07:44:20.265Z,2.45
2023-05-09T07:46:46.887Z,2.38
2023-05-09T07:49:13.550Z,2.08
2023-05-09T07:51:40.157Z,2.40
2023-05-09T07:54:06.956Z,2.40
2023-05-09T07:56:34.836Z,2.20
2023-05-09T07:59:04.582Z,2.35
2023-05-09T08:01:31.301Z,2.38
2023-05-09T08:03:58.107Z,2.50
2023-05-09T08:06:26.241Z,2.20
2023-05-09T08:08:52.863Z,2.42
2023-05-09T08:11:19.478Z,2.85
2023-05-09T08:13:46.933Z,2.78
2023-05-09T08:16:13.844Z,2.53
2023-05-09T08:18:40.559Z,2.40
2023-05-09T08:21:07.183Z,2.38
2023-05-09T08:23:33.895Z,2.92
2023-05-09T08:26:00.977Z,2.40
2023-05-09T08:28:28.794Z,2.15
2023-05-09T08:30:56.830Z,2.40
2023-05-09T08:33:24.283Z,2.28
2023-05-09T08:35:57.558Z,2.17
2023-05-09T08:38:28.280Z,2.22
2023-05-09T08:41:01.433Z,2.33
2023-05-09T08:43:29.213Z,1.98
2023-05-09T08:45:58.994Z,2.20
2023-05-09T08:48:28.309Z,2.00
2023-05-09T08:50:56.237Z,2.42
2023-05-09T08:53:24.535Z,2.00
2023-05-09T08:55:52.168Z,1.88
2023-05-09T08:58:20.482Z,2.30
2023-05-09T09:00:47.753Z,2.25
2023-05-09T09:03:14.899Z,2.25
2023-05-09T09:05:43.450Z,2.03
2023-05-09T09:08:11.214Z,2.17
2023-05-09T09:10:41.876Z,2.40
2023-05-09T09:13:10.255Z,2.08
2023-05-09T09:15:38.702Z,2.28
2023-05-09T09:18:12.780Z,1.80
2023-05-09T09:20:50.862Z,2.08
2023-05-09T09:23:20.533Z,2.00
2023-05-09T09:25:47.704Z,2.15
2023-05-09T09:28:15.186Z,1.80
2023-05-09T09:30:47.656Z,1.70
2023-05-09T09:33:22.087Z,1.80
2023-05-09T09:38:22.656Z,1.70
2023-05-09T09:40:57.382Z,1.60
2023-05-09T09:43:31.156Z,1.95
2023-05-09T09:46:01.474Z,1.98
2023-05-09T09:48:33.661Z,2.08
2023-05-09T09:51:18.844Z,1.67
2023-05-09T09:53:45.579Z,2.13
2023-05-09T09:56:13.482Z,1.42
2023-05-09T09:58:41.546Z,1.80
2023-05-09T10:01:16.761Z,2.00
2023-05-09T10:03:48.089Z,1.60
2023-05-09T10:06:16.565Z,2.05
2023-05-09T10:08:49.269Z,1.60
2023-05-09T10:11:17.277Z,1.92
2023-05-09T10:13:45.407Z,1.30
2023-05-09T10:16:13.898Z,2.17
2023-05-09T10:18:42.941Z,1.70
2023-05-09T10:21:13.966Z,1.70
2023-05-09T10:23:46.382Z,1.50
2023-05-09T10:26:27.695Z,1.88
2023-05-09T10:29:01.112Z,1.67
2023-05-09T10:31:31.738Z,1.90
2023-05-09T10:34:03.237Z,1.70
2023-05-09T10:36:32.558Z,1.73
2023-05-09T10:39:01.209Z,1.67
2023-05-09T10:41:29.614Z,1.90
2023-05-09T10:43:59.667Z,1.63
2023-05-09T10:46:27.517Z,1.85
2023-05-09T10:48:54.494Z,1.90
2023-05-09T10:51:21.676Z,1.70
2023-05-09T10:53:50.212Z,2.03
2023-05-09T10:56:29.622Z,1.80
2023-05-09T10:58:56.724Z,1.88
2023-05-09T11:01:37.002Z,2.03
2023-05-09T11:04:11.238Z,1.50
2023-05-09T11:06:52.230Z,1.45
2023-05-09T11:09:42.671Z,1.70
2023-05-09T11:12:12.924Z,1.77
2023-05-09T11:14:46.904Z,1.60
2023-05-09T11:17:14.879Z,1.80
2023-05-09T11:19:47.540Z,2.08
2023-05-09T11:22:17.346Z,2.05
2023-05-09T11:24:48.979Z,2.03
2023-05-09T11:27:26.485Z,1.75
2023-05-09T11:29:56.277Z,1.58
2023-05-09T11:32:47.975Z,2.28
2023-05-09T11:35:20.919Z,1.70
2023-05-09T11:37:55.023Z,1.45
2023-05-09T11:40:23.009Z,1.83
2023-05-09T11:42:58.071Z,1.70
2023-05-09T11:45:28.176Z,2.03
2023-05-09T11:47:55.306Z,1.38
2023-05-09T11:50:22.085Z,1.40
2023-05-09T11:52:49.653Z,1.60
2023-05-09T11:55:19.922Z,1.70
2023-05-09T11:57:50.776Z,1.65
2023-05-09T12:00:19.680Z,2.03
2023-05-09T12:02:47.752Z,1.52
2023-05-09T12:05:16.663Z,1.60
2023-05-09T12:07:44.636Z,1.60
2023-05-09T12:10:13.739Z,1.83
2023-05-09T12:12:44.828Z,2.42
2023-05-09T12:15:13.712Z,1.60
2023-05-09T12:17:42.745Z,1.48
2023-05-09T12:20:10.088Z,2.08
2023-05-09T12:22:37.682Z,1.73
2023-05-09T12:25:10.637Z,1.60
2023-05-09T12:27:39.525Z,1.20
2023-05-09T12:30:10.085Z,1.38
2023-05-09T12:32:40.322Z,2.08
2023-05-09T12:35:11.610Z,1.33
2023-05-09T12:37:39.259Z,1.65
2023-05-09T12:40:12.612Z,1.77
2023-05-09T12:42:41.043Z,1.93
2023-05-09T12:45:11.308Z,2.13
2023-05-09T12:47:43.347Z,1.33
2023-05-09T12:50:14.395Z,1.50
2023-05-09T12:52:54.125Z,1.65
2023-05-09T12:55:25.601Z,2.22
2023-05-09T12:58:02.719Z,1.70
2023-05-09T13:00:42.619Z,1.30
2023-05-09T13:03:31.145Z,1.33
2023-05-09T13:05:59.920Z,1.70
2023-05-09T13:08:27.690Z,1.80
2023-05-09T13:11:04.069Z,1.60
2023-05-09T13:13:36.495Z,1.42
2023-05-09T13:16:05.725Z,1.55
2023-05-09T13:18:33.175Z,1.30
2023-05-09T13:21:00.005Z,1.50
2023-05-09T13:23:26.692Z,1.42
2023-05-09T13:25:53.285Z,1.30
2023-05-09T13:28:20.000Z,1.50
2023-05-09T13:30:46.657Z,2.05
2023-05-09T13:33:25.116Z,1.90
2023-05-09T13:35:54.382Z,1.73
2023-05-09T13:38:21.549Z,2.03
2023-05-09T13:40:49.531Z,1.55
2023-05-09T13:43:16.132Z,1.20
2023-05-09T13:45:42.707Z,1.65
2023-05-09T13:48:10.758Z,1.40
2023-05-09T13:50:37.375Z,2.22
2023-05-09T13:53:05.339Z,1.30
2023-05-09T13:55:32.178Z,1.58
2023-05-09T13:57:58.806Z,1.63
2023-05-09T14:00:26.652Z,1.90
2023-05-09T14:02:53.462Z,1.30
2023-05-09T14:05:20.223Z,1.35
2023-05-09T14:07:47.548Z,1.70
2023-05-09T14:10:14.600Z,1.35
2023-05-09T14:12:44.284Z,1.00
2023-05-09T14:15:11.361Z,1.20
2023-05-09T14:17:38.321Z,1.67
2023-05-09T14:20:06.547Z,1.52
2023-05-09T14:22:33.244Z,1.60
2023-05-09T14:24:59.854Z,1.52
2023-05-09T14:27:27.712Z,1.42
2023-05-09T14:29:54.456Z,1.48
2023-05-09T14:32:21.282Z,1.15
2023-05-09T14:34:49.752Z,1.52
2023-05-09T14:37:16.946Z,1.55
2023-05-09T14:39:45.626Z,1.30
2023-05-09T14:42:14.256Z,1.23
2023-05-09T14:44:41.990Z,1.00
2023-05-09T14:47:10.003Z,1.20
2023-05-09T14:49:39.763Z,1.17
2023-05-09T14:52:07.520Z,1.52
2023-05-09T14:54:34.822Z,1.80
2023-05-09T14:57:04.525Z,1.73
2023-05-09T14:59:31.218Z,1.10
2023-05-09T15:01:57.879Z,1.17
2023-05-09T15:04:28.297Z,1.02
2023-05-09T15:06:55.081Z,1.35
2023-05-09T15:09:22.540Z,1.10
2023-05-09T15:11:49.464Z,1.10
2023-05-09T15:14:16.949Z,2.03
2023-05-09T15:16:44.032Z,1.20
2023-05-09T15:19:11.576Z,1.65
2023-05-09T15:21:38.229Z,1.52
2023-05-09T15:24:05.583Z,1.48
2023-05-09T15:26:32.456Z,1.35
2023-05-09T15:28:59.248Z,1.30
2023-05-09T15:31:26.051Z,1.60
2023-05-09T15:33:54.160Z,1.15
2023-05-09T15:36:21.302Z,1.00
2023-05-09T15:38:49.805Z,1.40
2023-05-09T15:41:17.066Z,1.23
2023-05-09T15:43:43.836Z,1.42
2023-05-09T15:46:10.621Z,0.95
2023-05-09T15:48:37.306Z,1.10
2023-05-09T15:51:04.268Z,1.20
2023-05-09T15:53:31.279Z,0.95
2023-05-09T15:55:58.061Z,1.10
2023-05-09T15:58:25.001Z,1.10
2023-05-09T16:00:51.835Z,1.05
2023-05-09T16:03:18.945Z,1.30
2023-05-09T16:05:45.804Z,1.40
2023-05-09T16:08:12.677Z,1.15
2023-05-09T16:10:39.335Z,1.20
2023-05-09T16:13:07.190Z,1.10
2023-05-09T16:15:35.484Z,1.33
2023-05-09T16:18:03.485Z,1.25
2023-05-09T16:20:30.127Z,1.50
2023-05-09T16:22:56.808Z,1.40
2023-05-09T16:25:23.416Z,1.00
2023-05-09T16:27:50.038Z,1.15
2023-05-09T16:30:17.018Z,1.38
2023-05-09T16:32:45.833Z,1.10
2023-05-09T16:35:12.916Z,1.42
2023-05-09T16:37:43.750Z,1.60
2023-05-09T16:40:11.511Z,1.05
2023-05-09T16:42:40.896Z,1.30
2023-05-09T16:45:10.387Z,1.08
2023-05-09T16:47:37.124Z,1.05
2023-05-09T16:50:04.726Z,1.45
2023-05-09T16:52:31.370Z,1.20
2023-05-09T16:54:59.473Z,1.73
2023-05-09T16:57:27.790Z,1.67
2023-05-09T16:59:55.898Z,1.60
2023-05-09T17:02:22.650Z,1.58
2023-05-09T17:04:49.371Z,1.33
2023-05-09T17:07:16.219Z,1.40
2023-05-09T17:09:43.280Z,1.52
2023-05-09T17:12:17.552Z,1.80
2023-05-09T17:14:46.579Z,1.58
2023-05-09T17:17:14.781Z,1.40
2023-05-09T17:19:41.489Z,1.50
2023-05-09T17:22:08.843Z,2.00
2023-05-09T17:24:35.477Z,1.73
2023-05-09T17:27:02.228Z,1.45
2023-05-09T17:29:31.940Z,1.70
2023-05-09T17:32:02.230Z,1.70
2023-05-09T17:34:30.357Z,1.75
2023-05-09T17:36:58.191Z,1.73
2023-05-09T17:39:26.310Z,1.42
2023-05-09T17:41:52.955Z,1.58
2023-05-09T17:44:19.609Z,1.13
2023-05-09T17:46:47.872Z,1.48
2023-05-09T17:49:15.606Z,1.35
2023-05-09T17:51:43.492Z,1.55
2023-05-09T17:54:10.820Z,1.38
2023-05-09T17:56:37.444Z,1.67
2023-05-09T17:59:04.262Z,1.55
2023-05-09T18:01:30.973Z,2.05
2023-05-09T18:03:57.921Z,1.55
2023-05-09T18:06:26.132Z,1.45
2023-05-09T18:08:52.788Z,1.60
2023-05-09T18:11:19.420Z,1.63
2023-05-09T18:13:47.214Z,1.88
2023-05-09T18:16:15.768Z,1.48
2023-05-09T18:18:43.684Z,2.20
2023-05-09T18:21:10.587Z,1.55
2023-05-09T18:23:37.497Z,1.42
2023-05-09T18:26:04.418Z,1.40
2023-05-09T18:28:31.918Z,1.73
2023-05-09T18:31:00.528Z,1.88
2023-05-09T18:33:29.827Z,1.50
2023-05-09T18:35:56.441Z,1.83
2023-05-09T18:38:23.819Z,1.63
2023-05-09T18:40:52.117Z,1.35
2023-05-09T18:43:20.859Z,1.38
2023-05-09T18:45:48.166Z,3.28
2023-05-09T18:48:19.188Z,1.70
2023-05-09T18:50:45.884Z,1.75
2023-05-09T18:53:13.698Z,1.98
2023-05-09T18:55:40.416Z,1.80
2023-05-09T18:58:08.341Z,1.80
2023-05-09T19:00:35.740Z,1.55
2023-05-09T19:03:02.550Z,2.20
2023-05-09T19:05:29.252Z,1.58
2023-05-09T19:07:55.897Z,1.60
2023-05-09T19:10:22.838Z,1.60
2023-05-09T19:12:49.980Z,1.50
2023-05-09T19:15:16.756Z,1.80
2023-05-09T19:17:43.634Z,1.40
2023-05-09T19:20:11.077Z,1.40
2023-05-09T19:22:40.566Z,1.63
2023-05-09T19:25:07.652Z,1.50
2023-05-09T19:27:34.330Z,1.70
2023-05-09T19:30:01.532Z,1.73
2023-05-09T19:32:28.199Z,1.58
2023-05-09T19:34:54.818Z,1.83
2023-05-09T19:37:22.018Z,1.60
2023-05-09T19:39:48.615Z,1.60
2023-05-09T19:42:15.523Z,1.40
2023-05-09T19:44:42.240Z,1.40
2023-05-09T19:47:10.064Z,1.75
2023-05-09T19:49:37.804Z,1.83
2023-05-09T19:52:04.587Z,1.70
2023-05-09T19:54:32.002Z,1.60
2023-05-09T19:56:58.722Z,1.58
2023-05-09T19:59:25.319Z,1.67
2023-05-09T20:01:52.034Z,1.80
2023-05-09T20:04:21.802Z,1.52
2023-05-09T20:06:48.509Z,3.28
2023-05-09T20:09:19.260Z,2.22
2023-05-09T20:11:45.901Z,2.20
2023-05-09T20:14:12.900Z,2.13
2023-05-09T20:16:39.720Z,1.70
2023-05-09T20:19:07.686Z,1.60
2023-05-09T20:21:34.471Z,1.90
2023-05-09T20:24:01.485Z,1.60
2023-05-09T20:26:29.087Z,1.80
2023-05-09T20:29:01.385Z,1.90
2023-05-09T20:31:29.303Z,1.67
2023-05-09T20:33:57.473Z,2.72
2023-05-09T20:36:26.405Z,1.60
2023-05-09T20:38:53.649Z,1.77
2023-05-09T20:41:20.265Z,1.75
2023-05-09T20:43:47.195Z,2.15
2023-05-09T20:46:14.146Z,2.08
2023-05-09T20:48:41.191Z,2.15
2023-05-09T20:51:09.394Z,2.17
2023-05-09T20:53:37.681Z,2.13
2023-05-09T20:56:04.719Z,1.70
2023-05-09T20:58:32.701Z,2.10
2023-05-09T21:00:59.552Z,2.00
2023-05-09T21:03:26.546Z,2.78
2023-05-09T21:05:53.714Z,2.88
2023-05-09T21:08:20.527Z,2.30
2023-05-09T21:10:47.340Z,2.00
2023-05-09T21:13:14.033Z,2.47
2023-05-09T21:15:40.770Z,1.90
2023-05-09T21:18:08.772Z,2.20
2023-05-09T21:20:36.564Z,2.03
2023-05-09T21:23:03.197Z,2.17
2023-05-09T21:25:29.827Z,2.00
2023-05-09T21:27:56.460Z,2.25
2023-05-09T21:30:23.124Z,2.38
2023-05-09T21:32:52.654Z,2.92
2023-05-09T21:35:20.570Z,2.30
2023-05-09T21:37:50.529Z,2.13
2023-05-09T21:40:17.524Z,2.30
2023-05-09T21:42:44.417Z,2.40
2023-05-09T21:45:11.222Z,2.30
2023-05-09T21:47:39.725Z,2.22
2023-05-09T21:50:07.557Z,2.10
2023-05-09T21:52:34.245Z,2.40
2023-05-09T21:55:00.949Z,2.53
2023-05-09T21:57:27.524Z,2.10
2023-05-09T21:59:56.160Z,2.17
2023-05-09T22:02:22.915Z,2.13
2023-05-09T22:04:49.603Z,1.92
2023-05-09T22:07:17.559Z,2.22
2023-05-09T22:09:44.109Z,1.95
2023-05-09T22:12:10.770Z,2.28
2023-05-09T22:14:48.591Z,2.40
2023-05-09T22:17:22.288Z,2.15
2023-05-09T22:19:50.119Z,2.28
2023-05-09T22:22:16.730Z,2.20
2023-05-09T22:24:43.335Z,2.90
2023-05-09T22:27:11.786Z,2.40
2023-05-09T22:29:38.559Z,2.33
2023-05-09T22:32:09.144Z,2.25
2023-05-09T22:34:36.038Z,2.40
2023-05-09T22:37:03.820Z,2.33
2023-05-09T22:39:31.061Z,2.30
2023-05-09T22:41:57.678Z,2.70
2023-05-09T22:44:24.366Z,2.60
2023-05-09T22:46:51.030Z,2.83
2023-05-09T22:49:17.723Z,2.30
2023-05-09T22:51:45.446Z,2.40
2023-05-09T22:54:12.189Z,2.45
2023-05-09T22:56:40.900Z,2.88
2023-05-09T22:59:08.657Z,2.42
2023-05-09T23:01:35.297Z,2.80
2023-05-09T23:04:01.979Z,2.50
2023-05-09T23:06:28.706Z,2.85
2023-05-09T23:08:55.307Z,2.72
2023-05-09T23:11:25.075Z,2.95
2023-05-09T23:13:51.849Z,2.85
2023-05-09T23:16:19.756Z,2.70
2023-05-09T23:18:47.757Z,2.70
2023-05-09T23:21:14.627Z,2.53
2023-05-09T23:23:41.249Z,3.65
2023-05-09T23:26:07.841Z,2.78
2023-05-09T23:28:34.462Z,3.17
2023-05-09T23:31:01.347Z,2.90
2023-05-09T23:33:27.987Z,2.80
2023-05-09T23:35:55.157Z,3.10
2023-05-09T23:38:22.595Z,2.90
2023-05-09T23:40:49.258Z,2.83
2023-05-09T23:43:16.012Z,2.72
2023-05-09T23:45:42.692Z,3.63
2023-05-09T23:48:09.476Z,3.38
2023-05-09T23:50:36.191Z,2.97
2023-05-09T23:53:04.909Z,3.03
2023-05-09T23:55:31.736Z,3.17
2023-05-09T23:57:58.452Z,3.33
